Time;durP1;ratioP1;P1;durP2;ratioP2;P2;SDS_P1;SDS_P2;PMS_P1;PMS_P2;Temp;Humidity;BMP_temperature;BMP_pressure;BME280_temperature;BME280_humidity;BME280_pressure;Samples;Min_cycle;Max_cycle;Signal;HPM_P1;HPM_P2
2022/01/01 00:18:38;;;;;;;55.10;48.80;;;11.80;99.90;;;;;;5692833;23;20492;-72
2022/01/01 00:21:05;;;;;;;73.00;57.77;;;12.00;99.90;;;;;;4978205;28;20487;-72
2022/01/01 00:23:34;;;;;;;63.93;55.90;;;12.50;99.90;;;;;;4979167;28;20821;-72
2022/01/01 00:26:01;;;;;;;57.33;48.70;;;12.70;99.90;;;;;;4978773;28;20946;-72
2022/01/01 00:28:28;;;;;;;52.03;46.60;;;13.20;99.90;;;;;;4983043;28;20467;-73
2022/01/01 00:30:55;;;;;;;46.77;41.00;;;13.40;99.90;;;;;;4978722;28;20438;-72
2022/01/01 00:33:25;;;;;;;49.93;44.57;;;13.80;99.90;;;;;;4977923;28;20916;-74
2022/01/01 00:35:53;;;;;;;48.40;43.30;;;13.80;99.90;;;;;;4978525;28;20464;-73
2022/01/01 00:38:20;;;;;;;45.13;40.40;;;13.80;99.90;;;;;;4978372;28;20488;-73
2022/01/01 00:40:47;;;;;;;37.53;33.43;;;13.80;99.90;;;;;;4978353;28;20467;-71
2022/01/01 00:43:14;;;;;;;31.53;28.23;;;13.80;99.90;;;;;;4980029;28;20460;-72
2022/01/01 00:45:41;;;;;;;29.10;26.00;;;13.70;99.90;;;;;;4979078;28;20450;-72
2022/01/01 00:48:07;;;;;;;31.70;27.47;;;13.50;99.90;;;;;;4977667;28;20817;-72
2022/01/01 00:50:34;;;;;;;28.80;24.97;;;13.40;99.90;;;;;;4978867;28;20455;-73
2022/01/01 00:53:03;;;;;;;33.07;28.90;;;13.20;99.90;;;;;;4980524;28;20460;-72
2022/01/01 00:55:29;;;;;;;31.27;26.97;;;13.10;99.90;;;;;;4980025;28;20463;-73
2022/01/01 00:57:56;;;;;;;28.67;23.20;;;13.00;99.90;;;;;;4980340;28;20461;-73
2022/01/01 01:00:23;;;;;;;24.23;21.63;;;12.90;99.90;;;;;;4979984;28;20471;-73
2022/01/01 01:02:50;;;;;;;25.70;23.10;;;12.80;99.90;;;;;;4978093;28;20458;-73
2022/01/01 01:05:16;;;;;;;27.50;23.47;;;12.80;99.90;;;;;;4977780;28;20458;-73
2022/01/01 01:07:43;;;;;;;22.17;18.53;;;12.70;99.90;;;;;;4977251;28;20459;-72
2022/01/01 01:10:12;;;;;;;22.23;19.70;;;12.60;99.90;;;;;;4977367;28;20455;-72
2022/01/01 01:12:43;;;;;;;17.93;16.03;;;12.50;99.90;;;;;;4977904;28;20504;-72
2022/01/01 01:15:16;;;;;;;18.60;15.37;;;12.50;99.90;;;;;;4977576;28;20543;-72
2022/01/01 01:17:43;;;;;;;16.50;14.77;;;12.50;99.90;;;;;;4977536;28;20551;-72
2022/01/01 01:20:11;;;;;;;17.47;13.80;;;12.40;99.90;;;;;;4977274;28;20481;-72
2022/01/01 01:22:38;;;;;;;14.53;13.07;;;12.40;99.90;;;;;;4977838;28;20462;-72
2022/01/01 01:25:06;;;;;;;15.13;13.63;;;12.40;99.90;;;;;;4976996;28;20459;-72
2022/01/01 01:27:35;;;;;;;14.57;13.17;;;12.30;99.90;;;;;;4982094;28;20463;-72
2022/01/01 01:30:03;;;;;;;16.00;13.40;;;12.30;99.90;;;;;;4986945;28;20478;-73
2022/01/01 01:32:30;;;;;;;14.23;12.57;;;12.30;99.90;;;;;;4985670;28;20465;-72
2022/01/01 01:34:56;;;;;;;17.00;13.03;;;12.20;99.90;;;;;;4978357;28;20455;-72
2022/01/01 01:37:23;;;;;;;15.60;12.50;;;12.20;99.90;;;;;;4977010;28;20461;-74
2022/01/01 01:39:50;;;;;;;15.43;12.97;;;12.20;99.90;;;;;;4976818;28;20482;-73
2022/01/01 01:42:17;;;;;;;15.40;12.13;;;12.20;99.90;;;;;;4976206;28;20973;-72
2022/01/01 01:44:47;;;;;;;17.17;14.53;;;12.10;99.90;;;;;;4976926;28;20531;-73
2022/01/01 01:47:16;;;;;;;14.67;13.10;;;12.10;99.90;;;;;;4976894;28;20834;-73
2022/01/01 01:49:44;;;;;;;18.30;14.23;;;12.10;99.90;;;;;;4976729;28;20489;-73
2022/01/01 01:52:15;;;;;;;15.77;13.47;;;12.10;99.90;;;;;;4976552;28;20458;-73
2022/01/01 01:54:42;;;;;;;17.10;13.80;;;12.10;99.90;;;;;;4975667;28;20980;-73
2022/01/01 01:57:09;;;;;;;14.87;12.50;;;12.10;99.90;;;;;;4977448;28;20465;-72
2022/01/01 01:59:36;;;;;;;15.57;13.93;;;12.10;99.90;;;;;;4975818;28;21024;-73
2022/01/01 02:02:04;;;;;;;14.97;12.80;;;12.10;99.90;;;;;;4977044;28;20582;-73
2022/01/01 02:04:31;;;;;;;16.77;13.70;;;12.10;99.90;;;;;;4976179;28;20459;-73
2022/01/01 02:06:58;;;;;;;14.80;13.27;;;12.00;99.90;;;;;;4976556;28;20465;-73
2022/01/01 02:09:26;;;;;;;15.87;14.07;;;12.10;99.90;;;;;;4976429;28;20484;-73
2022/01/01 02:11:53;;;;;;;16.20;14.50;;;12.00;99.90;;;;;;4976233;28;20817;-73
2022/01/01 02:14:32;;;;;;;17.57;13.83;;;12.00;99.90;;;;;;4975984;28;20841;-73
2022/01/01 02:17:11;;;;;;;14.80;13.27;;;11.90;99.90;;;;;;4976400;28;20443;-72
2022/01/01 02:19:54;;;;;;;13.10;11.80;;;11.90;99.90;;;;;;4975929;28;20488;-73
2022/01/01 02:22:24;;;;;;;14.00;12.63;;;11.90;99.90;;;;;;4976295;28;20439;-72
2022/01/01 02:24:50;;;;;;;15.40;12.40;;;11.90;99.90;;;;;;4976286;28;20533;-73
2022/01/01 02:27:18;;;;;;;16.77;12.30;;;11.90;99.90;;;;;;4976247;28;20461;-73
2022/01/01 02:29:45;;;;;;;12.30;11.10;;;11.90;99.90;;;;;;4975884;28;20482;-73
2022/01/01 02:32:13;;;;;;;14.77;11.03;;;11.90;99.90;;;;;;4975999;28;20461;-73
2022/01/01 02:34:41;;;;;;;13.60;11.57;;;11.90;99.90;;;;;;4980215;28;20450;-73
2022/01/01 02:37:08;;;;;;;13.60;11.83;;;11.90;99.90;;;;;;4977195;28;20956;-73
2022/01/01 02:39:36;;;;;;;12.93;11.63;;;12.00;99.90;;;;;;4975922;28;20482;-73
2022/01/01 02:42:03;;;;;;;12.30;10.70;;;12.00;99.90;;;;;;4976083;28;20467;-72
2022/01/01 02:44:30;;;;;;;12.70;11.40;;;12.00;99.90;;;;;;4976194;28;20458;-73
2022/01/01 02:46:57;;;;;;;13.97;11.97;;;12.10;99.90;;;;;;4975849;28;20959;-73
2022/01/01 02:49:24;;;;;;;12.93;11.50;;;12.10;99.90;;;;;;4975963;28;20514;-72
2022/01/01 02:51:51;;;;;;;13.57;12.13;;;12.10;99.90;;;;;;4976081;28;20517;-72
2022/01/01 02:54:18;;;;;;;12.77;11.47;;;12.10;99.90;;;;;;4976441;28;20460;-72
2022/01/01 02:56:46;;;;;;;16.10;14.10;;;12.10;99.90;;;;;;4975836;28;20459;-72
2022/01/01 02:59:13;;;;;;;15.87;14.27;;;12.10;99.90;;;;;;4976118;28;20489;-73
2022/01/01 03:01:39;;;;;;;15.23;12.10;;;12.00;99.90;;;;;;4975787;28;20482;-72
2022/01/01 03:04:06;;;;;;;15.30;13.43;;;12.00;99.90;;;;;;4975973;28;20462;-73
2022/01/01 03:06:34;;;;;;;16.43;13.60;;;12.10;99.90;;;;;;4978104;28;20472;-72
2022/01/01 03:09:00;;;;;;;16.77;14.97;;;12.10;99.90;;;;;;4979776;28;20478;-73
2022/01/01 03:11:27;;;;;;;17.67;15.03;;;12.00;99.90;;;;;;4980120;28;20477;-72
2022/01/01 03:13:55;;;;;;;16.87;15.03;;;12.00;99.90;;;;;;4979017;28;20922;-73
2022/01/01 03:16:22;;;;;;;17.53;13.93;;;12.00;99.90;;;;;;4979637;28;20462;-73
2022/01/01 03:18:48;;;;;;;16.83;14.90;;;12.00;99.90;;;;;;4978954;28;20494;-73
2022/01/01 03:21:15;;;;;;;17.80;16.00;;;11.90;99.90;;;;;;4979527;28;20485;-72
2022/01/01 03:23:42;;;;;;;19.90;17.57;;;11.90;99.90;;;;;;4979288;28;20470;-72
2022/01/01 03:26:09;;;;;;;26.80;23.90;;;11.70;99.90;;;;;;4979957;28;20454;-72
2022/01/01 03:28:35;;;;;;;27.87;23.23;;;11.50;99.90;;;;;;4981432;28;20503;-72
2022/01/01 03:31:04;;;;;;;36.57;29.97;;;11.40;99.90;;;;;;4979342;28;20454;-73
2022/01/01 03:33:30;;;;;;;36.73;30.57;;;11.40;99.90;;;;;;4978770;28;20468;-73
2022/01/01 03:35:57;;;;;;;34.67;30.83;;;11.30;99.90;;;;;;4979281;28;20472;-74
2022/01/01 03:38:24;;;;;;;34.80;30.00;;;11.30;99.90;;;;;;4978807;28;20990;-73
2022/01/01 03:40:51;;;;;;;43.80;35.37;;;11.30;99.90;;;;;;4979197;28;20482;-72
2022/01/01 03:43:18;;;;;;;42.70;35.50;;;11.40;99.90;;;;;;4978981;28;20455;-73
2022/01/01 03:45:44;;;;;;;39.33;35.20;;;11.40;99.90;;;;;;4978518;28;20835;-72
2022/01/01 03:48:12;;;;;;;42.97;38.23;;;11.40;99.90;;;;;;4978980;28;20476;-73
2022/01/01 03:50:39;;;;;;;49.63;40.20;;;11.40;99.90;;;;;;4979485;28;20454;-72
2022/01/01 03:53:06;;;;;;;43.73;38.70;;;11.40;99.90;;;;;;4979026;28;20462;-72
2022/01/01 03:55:33;;;;;;;48.70;40.57;;;11.40;99.90;;;;;;4978540;28;20836;-72
2022/01/01 03:57:59;;;;;;;43.33;37.93;;;11.40;99.90;;;;;;4977667;28;20976;-73
2022/01/01 04:00:26;;;;;;;44.60;38.60;;;11.40;99.90;;;;;;4978343;28;20469;-72
2022/01/01 04:02:53;;;;;;;41.30;36.63;;;11.40;99.90;;;;;;4978307;28;20458;-73
2022/01/01 04:05:21;;;;;;;44.40;37.67;;;11.40;99.90;;;;;;4978095;28;20457;-73
2022/01/01 04:07:48;;;;;;;38.13;33.73;;;11.50;99.90;;;;;;4978666;28;20946;-72
2022/01/01 04:10:14;;;;;;;42.40;35.67;;;11.50;99.90;;;;;;4979166;28;20865;-72
2022/01/01 04:12:41;;;;;;;38.87;34.57;;;11.50;99.90;;;;;;4978327;28;20458;-73
2022/01/01 04:15:08;;;;;;;37.70;33.63;;;11.50;99.90;;;;;;4978465;28;20466;-72
2022/01/01 04:17:37;;;;;;;40.93;33.60;;;11.50;99.90;;;;;;4977305;28;20454;-73
2022/01/01 04:20:06;;;;;;;39.60;34.60;;;11.50;99.90;;;;;;4978367;28;20571;-72
2022/01/01 04:22:34;;;;;;;42.33;36.00;;;11.50;99.90;;;;;;4978496;28;20525;-73
2022/01/01 04:25:01;;;;;;;41.83;35.60;;;11.50;99.90;;;;;;4981138;28;20454;-72
2022/01/01 04:27:28;;;;;;;37.77;33.03;;;11.50;99.90;;;;;;4980345;28;20466;-73
2022/01/01 04:29:55;;;;;;;42.27;37.33;;;11.50;99.90;;;;;;4978211;28;20882;-73
2022/01/01 04:32:21;;;;;;;40.70;36.33;;;11.50;99.90;;;;;;4977938;28;20812;-73
2022/01/01 04:34:48;;;;;;;41.87;37.30;;;11.40;99.90;;;;;;4978112;28;20472;-73
2022/01/01 04:37:17;;;;;;;43.60;38.40;;;11.30;99.90;;;;;;4978317;28;20462;-73
2022/01/01 04:39:45;;;;;;;46.13;39.33;;;11.30;99.90;;;;;;4978006;28;20513;-73
2022/01/01 04:42:11;;;;;;;41.80;36.70;;;11.20;99.90;;;;;;4977769;28;20488;-73
2022/01/01 04:44:38;;;;;;;42.27;37.67;;;11.10;99.90;;;;;;4978299;28;20464;-73
2022/01/01 04:47:05;;;;;;;44.23;37.23;;;11.10;99.90;;;;;;4977866;28;20461;-73
2022/01/01 04:49:32;;;;;;;38.93;34.03;;;11.10;99.90;;;;;;4977170;28;20505;-73
2022/01/01 04:51:59;;;;;;;44.17;36.53;;;10.90;99.90;;;;;;4977584;28;20452;-73
2022/01/01 04:54:26;;;;;;;41.80;33.77;;;10.90;99.90;;;;;;4977340;28;20948;-73
2022/01/01 04:56:54;;;;;;;44.80;33.80;;;10.80;99.90;;;;;;4977732;28;20466;-72
2022/01/01 04:59:21;;;;;;;40.57;32.77;;;10.80;99.90;;;;;;4979109;28;20482;-72
2022/01/01 05:01:47;;;;;;;41.50;32.30;;;10.70;99.90;;;;;;4977689;28;20548;-73
2022/01/01 05:04:15;;;;;;;36.20;30.97;;;10.60;99.90;;;;;;4977995;28;20802;-73
2022/01/01 05:06:42;;;;;;;40.27;32.97;;;10.50;99.90;;;;;;4977604;28;20467;-73
2022/01/01 05:09:09;;;;;;;36.83;30.27;;;10.50;99.90;;;;;;4977888;28;20475;-72
2022/01/01 05:11:36;;;;;;;40.17;29.23;;;10.40;99.90;;;;;;4977481;28;20487;-73
2022/01/01 05:14:04;;;;;;;34.60;28.97;;;10.40;99.90;;;;;;4977265;28;20456;-73
2022/01/01 05:16:31;;;;;;;33.00;27.47;;;10.40;99.90;;;;;;4976898;28;20461;-73
2022/01/01 05:18:58;;;;;;;33.97;29.67;;;10.40;99.90;;;;;;4976844;28;20885;-73
2022/01/01 05:21:27;;;;;;;35.30;30.13;;;10.30;99.90;;;;;;4977313;28;20482;-72
2022/01/01 05:23:54;;;;;;;34.30;27.70;;;10.30;99.90;;;;;;4977738;28;20459;-72
2022/01/01 05:26:20;;;;;;;34.87;28.57;;;10.30;99.90;;;;;;4977474;28;20456;-72
2022/01/01 05:28:49;;;;;;;38.17;28.83;;;10.20;99.90;;;;;;4976940;28;21014;-73
2022/01/01 05:31:19;;;;;;;32.33;26.57;;;10.20;99.90;;;;;;4977277;28;20824;-72
2022/01/01 05:33:46;;;;;;;31.33;27.80;;;10.20;99.90;;;;;;4977166;28;20476;-73
2022/01/01 05:36:13;;;;;;;33.27;29.50;;;10.20;99.90;;;;;;4977202;28;20452;-72
2022/01/01 05:38:40;;;;;;;38.67;29.37;;;10.20;99.90;;;;;;4976454;28;20480;-72
2022/01/01 05:41:06;;;;;;;36.70;28.40;;;10.20;99.90;;;;;;4976759;28;20466;-72
2022/01/01 05:43:33;;;;;;;35.53;28.60;;;10.20;99.90;;;;;;4975987;28;20941;-73
2022/01/01 05:46:00;;;;;;;32.67;26.97;;;10.10;99.90;;;;;;4976628;28;20474;-72
2022/01/01 05:48:28;;;;;;;36.90;30.53;;;10.10;99.90;;;;;;4976352;28;20991;-72
2022/01/01 05:50:55;;;;;;;34.13;28.20;;;10.10;99.90;;;;;;4976637;28;20459;-72
2022/01/01 05:53:22;;;;;;;41.20;30.83;;;10.00;99.90;;;;;;4976801;28;20904;-73
2022/01/01 05:55:50;;;;;;;33.70;28.47;;;10.00;99.90;;;;;;4976484;28;20536;-72
2022/01/01 05:58:17;;;;;;;34.90;27.97;;;10.00;99.90;;;;;;4976740;28;20480;-73
2022/01/01 06:00:44;;;;;;;32.67;27.40;;;9.90;99.90;;;;;;4976669;28;20463;-72
2022/01/01 06:03:11;;;;;;;32.27;26.10;;;9.90;99.90;;;;;;4976548;28;20483;-72
2022/01/01 06:05:39;;;;;;;35.63;27.53;;;9.90;99.90;;;;;;4977372;28;20457;-72
2022/01/01 06:08:06;;;;;;;33.20;27.70;;;10.00;99.90;;;;;;4976301;28;20525;-72
2022/01/01 06:10:33;;;;;;;29.00;25.90;;;10.00;99.90;;;;;;4975934;28;20945;-74
2022/01/01 06:12:59;;;;;;;29.93;25.50;;;10.00;99.90;;;;;;4976418;28;20468;-72
2022/01/01 06:15:26;;;;;;;31.47;26.20;;;10.00;99.90;;;;;;4976339;28;20460;-72
2022/01/01 06:17:53;;;;;;;30.47;26.33;;;10.10;99.90;;;;;;4976178;28;20820;-73
2022/01/01 06:20:19;;;;;;;34.60;26.70;;;10.10;99.90;;;;;;4976456;28;20440;-72
2022/01/01 06:22:47;;;;;;;29.63;25.40;;;10.10;99.90;;;;;;4976241;28;20494;-72
2022/01/01 06:25:14;;;;;;;32.20;27.10;;;10.10;99.90;;;;;;4976474;28;20466;-72
2022/01/01 06:27:41;;;;;;;32.90;27.10;;;10.10;99.90;;;;;;4976466;28;20466;-72
2022/01/01 06:30:09;;;;;;;35.33;26.40;;;10.10;99.90;;;;;;4978603;28;20480;-72
2022/01/01 06:32:35;;;;;;;30.77;25.93;;;10.10;99.90;;;;;;4975819;28;20966;-72
2022/01/01 06:35:02;;;;;;;30.77;25.17;;;10.20;99.90;;;;;;4975836;28;20472;-73
2022/01/01 06:37:29;;;;;;;32.70;25.83;;;10.20;99.90;;;;;;4976347;28;20467;-72
2022/01/01 06:39:57;;;;;;;28.87;23.97;;;10.20;99.90;;;;;;4976501;28;20493;-72
2022/01/01 06:42:24;;;;;;;26.57;23.60;;;10.20;99.90;;;;;;4979426;28;20987;-72
2022/01/01 06:44:50;;;;;;;28.80;24.30;;;10.10;99.90;;;;;;4980053;28;20503;-73
2022/01/01 06:47:17;;;;;;;28.47;23.97;;;10.10;99.90;;;;;;4979517;28;20456;-72
2022/01/01 06:49:44;;;;;;;29.53;23.40;;;10.10;99.90;;;;;;4979366;28;20478;-72
2022/01/01 06:52:10;;;;;;;27.70;22.83;;;10.10;99.90;;;;;;4979253;28;20452;-72
2022/01/01 06:54:37;;;;;;;29.17;23.73;;;10.10;99.90;;;;;;4979397;28;20486;-72
2022/01/01 06:57:06;;;;;;;27.77;24.07;;;10.10;99.90;;;;;;4979428;28;20464;-72
2022/01/01 06:59:32;;;;;;;27.67;24.10;;;10.10;99.90;;;;;;4979350;28;20475;-72
2022/01/01 07:01:59;;;;;;;27.30;23.17;;;10.00;99.90;;;;;;4979863;28;20992;-72
2022/01/01 07:04:26;;;;;;;27.97;22.00;;;10.00;99.90;;;;;;4979675;28;20444;-72
2022/01/01 07:06:52;;;;;;;23.43;19.80;;;9.90;99.90;;;;;;4978884;28;20939;-72
2022/01/01 07:09:19;;;;;;;25.97;21.30;;;9.80;99.90;;;;;;4979140;28;20487;-72
2022/01/01 07:11:46;;;;;;;26.40;21.80;;;9.80;99.90;;;;;;4979297;28;20462;-71
2022/01/01 07:14:14;;;;;;;24.20;19.80;;;9.80;99.90;;;;;;4979501;28;20896;-71
2022/01/01 07:16:40;;;;;;;24.00;20.23;;;9.70;99.90;;;;;;4979077;28;20451;-71
2022/01/01 07:19:07;;;;;;;23.07;19.83;;;9.70;99.90;;;;;;4978868;28;20494;-71
2022/01/01 07:21:34;;;;;;;21.53;19.23;;;9.70;99.90;;;;;;4978717;28;20955;-71
2022/01/01 07:24:01;;;;;;;21.90;19.23;;;9.70;99.90;;;;;;4978742;28;20488;-71
2022/01/01 07:26:27;;;;;;;29.60;19.93;;;9.70;99.90;;;;;;4979244;28;20447;-71
2022/01/01 07:28:54;;;;;;;23.97;19.43;;;9.70;99.90;;;;;;4979113;28;20478;-71
2022/01/01 07:31:22;;;;;;;24.33;19.03;;;9.70;99.90;;;;;;4978853;28;20466;-71
2022/01/01 07:33:49;;;;;;;21.33;18.20;;;9.70;99.90;;;;;;4978710;28;20459;-71
2022/01/01 07:36:16;;;;;;;21.00;17.87;;;9.80;99.90;;;;;;4978518;28;20487;-72
2022/01/01 07:38:42;;;;;;;21.70;18.37;;;9.90;99.90;;;;;;4978474;28;20488;-72
2022/01/01 07:41:09;;;;;;;24.43;19.37;;;9.90;99.90;;;;;;4978518;28;20988;-72
2022/01/01 07:43:38;;;;;;;20.87;17.30;;;9.80;99.90;;;;;;4978571;28;20487;-72
2022/01/01 07:46:05;;;;;;;18.97;15.67;;;9.80;99.90;;;;;;4978911;28;20461;-72
2022/01/01 07:48:33;;;;;;;17.43;15.43;;;9.90;99.90;;;;;;4978084;28;20484;-72
2022/01/01 07:51:00;;;;;;;17.53;15.70;;;9.80;99.90;;;;;;4978496;28;20455;-72
2022/01/01 07:53:26;;;;;;;17.57;15.77;;;9.90;99.90;;;;;;4978419;28;20455;-72
2022/01/01 07:55:53;;;;;;;19.63;16.33;;;10.00;99.90;;;;;;4978660;28;20467;-72
2022/01/01 07:58:20;;;;;;;16.43;14.60;;;10.10;99.90;;;;;;4978497;28;20836;-72
2022/01/01 08:00:47;;;;;;;16.20;14.50;;;10.20;99.90;;;;;;4980336;28;20480;-71
2022/01/01 08:03:14;;;;;;;15.23;13.63;;;10.30;99.90;;;;;;4979304;28;21020;-71
2022/01/01 08:05:42;;;;;;;14.37;12.87;;;10.50;99.90;;;;;;4978478;28;20463;-71
2022/01/01 08:08:09;;;;;;;13.63;12.30;;;10.90;99.90;;;;;;4977972;28;20497;-72
2022/01/01 08:10:37;;;;;;;13.40;12.00;;;11.30;99.90;;;;;;4978119;28;20449;-72
2022/01/01 08:13:06;;;;;;;12.03;10.83;;;12.10;99.90;;;;;;4977846;28;20450;-72
2022/01/01 08:15:32;;;;;;;11.33;10.20;;;12.90;99.90;;;;;;4977903;28;20494;-72
2022/01/01 08:17:59;;;;;;;12.53;11.30;;;13.20;99.90;;;;;;4977170;28;20452;-72
2022/01/01 08:20:26;;;;;;;11.20;10.03;;;13.30;99.90;;;;;;4977759;28;21026;-72
2022/01/01 08:22:54;;;;;;;12.20;11.10;;;13.40;99.90;;;;;;4978829;28;20484;-72
2022/01/01 08:25:21;;;;;;;11.40;10.20;;;13.40;99.90;;;;;;4977935;28;20464;-72
2022/01/01 08:27:48;;;;;;;11.73;10.57;;;13.70;99.90;;;;;;4977472;28;20543;-72
2022/01/01 08:30:15;;;;;;;11.93;10.73;;;14.30;99.90;;;;;;4977717;28;20455;-72
2022/01/01 08:32:42;;;;;;;11.40;10.33;;;14.20;99.90;;;;;;4977792;28;20492;-72
2022/01/01 08:35:09;;;;;;;11.43;10.20;;;14.40;99.90;;;;;;4977561;28;20493;-72
2022/01/01 08:37:36;;;;;;;13.23;10.47;;;14.70;99.90;;;;;;4977750;28;20455;-72
2022/01/01 08:40:05;;;;;;;10.83;9.80;;;15.20;99.90;;;;;;4976848;28;20481;-72
2022/01/01 08:42:32;;;;;;;11.27;10.17;;;15.70;99.90;;;;;;4977415;28;21023;-71
2022/01/01 08:44:59;;;;;;;13.20;10.20;;;16.20;99.90;;;;;;4977492;28;20463;-72
2022/01/01 08:47:26;;;;;;;11.37;10.20;;;16.90;99.90;;;;;;4977354;28;20468;-72
2022/01/01 08:49:54;;;;;;;9.83;8.93;;;18.00;99.90;;;;;;4977436;28;20491;-73
2022/01/01 08:52:22;;;;;;;10.83;9.77;;;19.10;99.90;;;;;;4977885;28;20497;-72
2022/01/01 08:54:49;;;;;;;10.07;9.10;;;19.90;99.90;;;;;;4977166;28;20463;-72
2022/01/01 08:57:17;;;;;;;9.87;8.97;;;19.70;99.90;;;;;;4977367;28;20458;-72
2022/01/01 08:59:44;;;;;;;9.63;8.83;;;19.90;99.90;;;;;;4977147;28;20558;-73
2022/01/01 09:02:11;;;;;;;10.80;9.80;;;19.40;99.90;;;;;;4977134;28;20826;-71
2022/01/01 09:04:38;;;;;;;13.20;10.90;;;18.90;99.90;;;;;;4977015;28;20458;-72
2022/01/01 09:07:04;;;;;;;11.30;10.20;;;18.00;99.90;;;;;;4977193;28;20465;-72
2022/01/01 09:09:31;;;;;;;13.20;11.90;;;17.60;99.90;;;;;;4976438;28;20546;-72
2022/01/01 09:11:58;;;;;;;12.33;10.40;;;16.90;99.90;;;;;;4976755;28;20791;-72
2022/01/01 09:14:27;;;;;;;13.97;11.23;;;16.40;99.90;;;;;;4976669;28;20949;-72
2022/01/01 09:16:54;;;;;;;11.63;10.63;;;15.90;99.90;;;;;;4977150;28;20497;-72
2022/01/01 09:19:21;;;;;;;11.07;9.97;;;15.50;99.90;;;;;;4976817;28;20856;-72
2022/01/01 09:21:47;;;;;;;10.77;9.77;;;15.50;99.90;;;;;;4976872;28;20464;-72
2022/01/01 09:24:14;;;;;;;12.10;10.90;;;15.30;99.90;;;;;;4977030;28;20482;-72
2022/01/01 09:26:41;;;;;;;11.50;10.30;;;14.90;99.90;;;;;;4977045;28;20470;-72
2022/01/01 09:29:10;;;;;;;11.30;10.20;;;14.90;99.90;;;;;;4977657;28;20479;-72
2022/01/01 09:31:38;;;;;;;9.63;8.53;;;15.00;99.90;;;;;;4978242;28;20464;-73
2022/01/01 09:34:05;;;;;;;11.07;9.87;;;14.70;99.90;;;;;;4982414;28;20944;-71
2022/01/01 09:36:32;;;;;;;9.50;8.60;;;14.70;99.90;;;;;;4976846;28;20795;-72
2022/01/01 09:38:59;;;;;;;9.93;9.00;;;14.60;99.90;;;;;;4976730;28;20544;-72
2022/01/01 09:41:26;;;;;;;10.70;8.70;;;14.30;99.90;;;;;;4977203;28;20455;-71
2022/01/01 09:43:54;;;;;;;10.37;9.23;;;14.40;99.90;;;;;;4976454;28;21016;-72
2022/01/01 09:46:21;;;;;;;10.37;9.47;;;14.40;99.90;;;;;;4976740;28;20978;-72
2022/01/01 09:48:50;;;;;;;8.93;8.07;;;14.40;99.90;;;;;;4976856;28;20493;-72
2022/01/01 09:51:17;;;;;;;9.00;8.10;;;14.30;99.90;;;;;;4976710;28;20799;-71
2022/01/01 09:53:44;;;;;;;8.37;7.57;;;14.20;99.90;;;;;;4976178;28;20806;-71
2022/01/01 09:56:10;;;;;;;8.20;7.40;;;14.20;99.90;;;;;;4976222;28;20465;-71
2022/01/01 09:58:38;;;;;;;7.70;6.90;;;14.00;99.90;;;;;;4975985;28;20483;-70
2022/01/01 10:01:07;;;;;;;10.03;7.87;;;14.00;99.90;;;;;;4976586;28;20456;-71
2022/01/01 10:03:36;;;;;;;7.73;7.00;;;13.70;99.90;;;;;;4975700;28;20483;-71
2022/01/01 10:06:06;;;;;;;7.70;6.90;;;13.70;99.90;;;;;;4976465;28;20948;-71
2022/01/01 10:08:33;;;;;;;8.50;7.43;;;13.70;99.90;;;;;;4977079;28;20505;-71
2022/01/01 10:11:00;;;;;;;8.87;7.70;;;13.80;99.90;;;;;;4976094;28;20454;-71
2022/01/01 10:13:31;;;;;;;8.27;7.47;;;13.80;99.90;;;;;;4976164;28;20442;-71
2022/01/01 10:16:00;;;;;;;8.43;7.60;;;13.80;99.90;;;;;;4974553;28;20799;-72
2022/01/01 10:18:29;;;;;;;9.37;8.47;;;13.90;99.90;;;;;;4975317;28;20487;-71
2022/01/01 10:20:57;;;;;;;9.33;8.30;;;13.90;99.90;;;;;;4975357;28;20462;-71
2022/01/01 10:23:28;;;;;;;9.07;8.27;;;14.00;99.90;;;;;;4975263;28;20481;-71
2022/01/01 10:28:55;;;;;;;12.40;11.20;;;14.10;99.90;;;;;;4975742;28;20469;-71
2022/01/01 10:31:22;;;;;;;10.87;9.77;;;14.10;99.90;;;;;;4975335;28;20465;-71
2022/01/01 10:33:49;;;;;;;12.30;10.73;;;14.10;99.90;;;;;;4975709;28;20479;-71
2022/01/01 10:36:15;;;;;;;11.00;9.90;;;14.50;99.90;;;;;;4975420;28;20558;-71
2022/01/01 10:38:45;;;;;;;10.80;9.70;;;15.40;99.90;;;;;;4975546;28;20485;-72
2022/01/01 10:41:13;;;;;;;10.40;9.23;;;16.80;99.90;;;;;;4977943;28;20462;-69
2022/01/01 10:43:41;;;;;;;10.10;9.20;;;18.30;99.90;;;;;;4977813;28;20536;-70
2022/01/01 10:46:11;;;;;;;10.40;9.40;;;19.70;99.90;;;;;;4976432;28;20549;-68
2022/01/01 10:48:53;;;;;;;10.23;9.33;;;21.00;99.90;;;;;;4976142;28;20482;-69
2022/01/01 10:51:20;;;;;;;13.27;9.07;;;21.80;99.90;;;;;;4976202;28;20543;-68
2022/01/01 10:54:01;;;;;;;8.90;8.17;;;22.20;99.90;;;;;;4975309;28;20490;-68
2022/01/01 10:56:37;;;;;;;9.77;8.90;;;22.50;99.60;;;;;;4977773;28;20436;-68
2022/01/01 10:59:04;;;;;;;9.10;7.87;;;22.00;98.20;;;;;;4975993;28;20481;-68
2022/01/01 11:01:33;;;;;;;8.63;7.90;;;21.70;98.10;;;;;;4976188;28;20475;-68
2022/01/01 11:04:01;;;;;;;8.03;7.33;;;20.80;99.90;;;;;;4978199;28;20487;-68
2022/01/01 11:06:33;;;;;;;11.40;7.80;;;20.20;99.90;;;;;;4978512;28;20461;-68
2022/01/01 11:09:02;;;;;;;8.20;7.40;;;19.50;99.90;;;;;;4975506;28;21041;-69
2022/01/01 11:11:31;;;;;;;8.77;7.87;;;19.10;99.90;;;;;;4975938;28;20459;-69
2022/01/01 11:13:58;;;;;;;8.37;7.53;;;18.50;99.90;;;;;;4975734;28;20531;-69
2022/01/01 11:16:26;;;;;;;8.03;7.23;;;18.10;99.90;;;;;;4975851;28;20818;-69
2022/01/01 11:18:53;;;;;;;8.73;7.20;;;17.70;99.90;;;;;;4975422;28;20989;-69
2022/01/01 11:21:21;;;;;;;7.63;6.93;;;17.20;99.90;;;;;;4975794;28;20481;-69
2022/01/01 11:23:48;;;;;;;7.47;6.77;;;16.90;99.90;;;;;;4975960;28;20482;-70
2022/01/01 11:26:18;;;;;;;6.23;5.70;;;16.70;99.90;;;;;;4978198;28;20446;-70
2022/01/01 11:28:44;;;;;;;6.50;5.90;;;16.70;99.90;;;;;;4980242;28;20568;-70
2022/01/01 11:31:16;;;;;;;6.97;6.37;;;16.80;99.90;;;;;;4979660;28;20439;-71
2022/01/01 11:33:45;;;;;;;6.80;6.20;;;16.70;99.90;;;;;;4979532;28;20533;-71
2022/01/01 11:36:20;;;;;;;5.73;5.30;;;16.70;99.90;;;;;;4979021;28;20454;-67
2022/01/01 11:38:47;;;;;;;6.87;6.33;;;16.70;99.90;;;;;;4979006;28;20481;-67
2022/01/01 11:41:17;;;;;;;7.40;6.70;;;16.70;99.90;;;;;;4978933;28;20784;-67
2022/01/01 11:43:46;;;;;;;6.57;5.97;;;16.50;99.90;;;;;;4978988;28;20558;-68
2022/01/01 11:46:15;;;;;;;6.50;5.90;;;16.40;99.90;;;;;;4978765;28;20950;-68
2022/01/01 11:48:48;;;;;;;8.40;6.10;;;16.50;99.90;;;;;;4979258;28;20482;-68
2022/01/01 11:51:32;;;;;;;6.30;5.77;;;16.40;99.90;;;;;;4979159;28;20450;-68
2022/01/01 11:54:21;;;;;;;5.77;4.97;;;16.10;99.90;;;;;;4979405;28;20443;-68
2022/01/01 11:56:58;;;;;;;6.30;5.70;;;16.00;99.90;;;;;;4976457;28;20485;-68
2022/01/01 11:59:30;;;;;;;7.03;5.90;;;16.10;99.90;;;;;;4979010;28;20484;-68
2022/01/01 12:02:00;;;;;;;7.53;6.90;;;16.10;99.90;;;;;;4978116;28;20441;-69
2022/01/01 12:04:32;;;;;;;7.43;6.47;;;16.20;99.90;;;;;;4979238;28;20473;-68
2022/01/01 12:07:00;;;;;;;9.57;7.13;;;16.30;99.90;;;;;;4983561;28;20534;-70
2022/01/01 12:09:27;;;;;;;7.83;7.13;;;16.20;99.90;;;;;;4986267;28;20462;-71
2022/01/01 12:11:58;;;;;;;7.90;7.10;;;16.30;99.90;;;;;;4980758;28;20446;-70
2022/01/01 12:14:28;;;;;;;8.80;8.00;;;16.30;99.90;;;;;;4986216;28;20440;-69
2022/01/01 12:16:56;;;;;;;8.07;7.27;;;16.30;99.90;;;;;;4986365;28;20438;-69
2022/01/01 12:19:26;;;;;;;7.57;6.87;;;16.40;99.90;;;;;;4987507;28;20549;-69
2022/01/01 12:22:17;;;;;;;7.93;7.13;;;16.30;99.90;;;;;;4985238;28;20453;-69
2022/01/01 12:27:47;;;;;;;7.23;6.53;;;16.10;99.90;;;;;;4986805;28;20492;-70
2022/01/01 12:30:15;;;;;;;7.73;7.00;;;16.00;99.90;;;;;;4987241;28;20559;-68
2022/01/01 12:32:44;;;;;;;9.23;8.37;;;16.10;99.90;;;;;;4985581;28;20569;-69
2022/01/01 12:35:18;;;;;;;8.50;6.50;;;16.10;99.90;;;;;;4983993;28;20450;-70
2022/01/01 12:37:45;;;;;;;7.10;6.47;;;16.00;99.90;;;;;;4987111;28;20433;-70
2022/01/01 12:40:13;;;;;;;8.00;7.30;;;16.00;99.90;;;;;;4986404;28;20473;-69
2022/01/01 12:42:47;;;;;;;7.20;6.50;;;15.90;99.90;;;;;;4983926;28;20486;-69
2022/01/01 12:45:15;;;;;;;8.07;7.20;;;15.90;99.90;;;;;;4983810;28;20465;-69
2022/01/01 12:47:42;;;;;;;7.00;6.30;;;15.90;99.90;;;;;;4983620;28;20469;-70
2022/01/01 12:50:09;;;;;;;7.00;6.43;;;15.80;99.90;;;;;;4979161;28;20478;-70
2022/01/01 12:52:36;;;;;;;7.07;6.47;;;15.80;99.90;;;;;;4977873;28;20461;-70
2022/01/01 12:55:03;;;;;;;7.40;6.70;;;15.90;99.90;;;;;;4978064;28;20461;-70
2022/01/01 12:57:31;;;;;;;6.57;5.93;;;15.80;99.90;;;;;;4978298;28;20464;-69
2022/01/01 13:00:19;;;;;;;7.40;6.60;;;15.80;99.90;;;;;;4978373;28;20819;-70